createdAt,value
2023-04-25T00:01:25.333Z,99609.47
2023-04-25T00:04:31.315Z,99605.13
2023-04-25T00:07:34.341Z,99617.81
2023-04-25T00:10:38.366Z,99614.22
2023-04-25T00:13:42.819Z,99610.53
2023-04-25T00:16:45.542Z,99609.84
2023-04-25T00:19:48.617Z,99613.34
2023-04-25T00:22:52.064Z,99616.50
2023-04-25T00:25:56.128Z,99628.66
2023-04-25T00:28:58.978Z,99631.94
2023-04-25T00:32:01.822Z,99626.25
2023-04-25T00:35:04.760Z,99626.44
2023-04-25T00:38:07.461Z,99618.38
2023-04-25T00:41:11.570Z,99620.91
2023-04-25T00:44:14.481Z,99626.31
2023-04-25T00:47:17.691Z,99627.13
2023-04-25T00:50:20.433Z,99624.94
2023-04-25T00:53:23.902Z,99621.19
2023-04-25T00:56:28.063Z,99625.72
2023-04-25T00:59:31.707Z,99620.66
2023-04-25T01:02:38.462Z,99621.44
2023-04-25T01:05:42.537Z,99610.44
2023-04-25T01:08:45.357Z,99616.59
2023-04-25T01:11:49.353Z,99620.34
2023-04-25T01:14:55.116Z,99616.22
2023-04-25T01:17:59.084Z,99609.06
2023-04-25T01:21:09.626Z,99607.16
2023-04-25T01:24:13.404Z,99606.03
2023-04-25T01:27:16.526Z,99604.53
2023-04-25T01:30:19.922Z,99592.44
2023-04-25T01:33:23.493Z,99591.34
2023-04-25T01:36:28.103Z,99600.34
2023-04-25T01:39:34.161Z,99593.19
2023-04-25T01:42:39.009Z,99592.72
2023-04-25T01:45:42.260Z,99599.63
2023-04-25T01:48:45.225Z,99598.75
2023-04-25T01:51:49.249Z,99601.72
2023-04-25T01:54:52.883Z,99599.88
2023-04-25T01:57:55.893Z,99593.28
2023-04-25T02:00:59.156Z,99605.28
2023-04-25T02:04:02.812Z,99607.81
2023-04-25T02:07:06.953Z,99606.84
2023-04-25T02:10:10.561Z,99604.94
2023-04-25T02:13:13.234Z,99605.56
2023-04-25T02:16:15.940Z,99607.16
2023-04-25T02:19:18.782Z,99600.00
2023-04-25T02:22:22.769Z,99603.66
2023-04-25T02:25:25.580Z,99599.28
2023-04-25T02:28:31.347Z,99598.44
2023-04-25T02:31:34.407Z,99600.56
2023-04-25T02:34:37.599Z,99595.44
2023-04-25T02:37:42.178Z,99594.38
2023-04-25T02:40:45.077Z,99599.63
2023-04-25T02:43:47.762Z,99593.59
2023-04-25T02:46:50.522Z,99595.28
2023-04-25T02:49:53.285Z,99590.63
2023-04-25T02:52:57.508Z,99596.84
2023-04-25T02:56:00.328Z,99586.88
2023-04-25T02:59:03.515Z,99594.94
2023-04-25T03:02:06.490Z,99586.88
2023-04-25T03:05:09.934Z,99590.41
2023-04-25T03:08:13.993Z,99589.50
2023-04-25T03:11:16.688Z,99587.59
2023-04-25T03:14:19.437Z,99586.72
2023-04-25T03:17:25.238Z,99590.41
2023-04-25T03:20:28.054Z,99592.31
2023-04-25T03:23:32.081Z,99595.28
2023-04-25T03:26:34.894Z,99585.56
2023-04-25T03:29:37.808Z,99592.78
2023-04-25T03:32:40.508Z,99595.56
2023-04-25T03:35:43.647Z,99601.06
2023-04-25T03:38:49.326Z,99602.19
2023-04-25T03:41:52.089Z,99598.00
2023-04-25T03:44:54.819Z,99601.75
2023-04-25T03:47:57.592Z,99607.16
2023-04-25T03:51:00.382Z,99609.31
2023-04-25T03:54:05.100Z,99616.22
2023-04-25T03:57:07.793Z,99613.59
2023-04-25T04:00:11.446Z,99616.31
2023-04-25T04:03:14.225Z,99615.34
2023-04-25T04:06:17.077Z,99613.44
2023-04-25T04:09:21.497Z,99622.50
2023-04-25T04:12:24.193Z,99625.22
2023-04-25T04:15:26.905Z,99620.59
2023-04-25T04:18:30.519Z,99629.66
2023-04-25T04:21:34.504Z,99614.25
2023-04-25T04:24:38.568Z,99623.78
2023-04-25T04:27:41.612Z,99625.66
2023-04-25T04:30:46.974Z,99625.72
2023-04-25T04:33:50.070Z,99615.53
2023-04-25T04:36:52.926Z,99619.31
2023-04-25T04:39:57.461Z,99622.41
2023-04-25T04:43:00.137Z,99623.41
2023-04-25T04:46:04.620Z,99615.97
2023-04-25T04:49:07.315Z,99622.69
2023-04-25T04:52:10.112Z,99632.63
2023-04-25T04:55:14.309Z,99633.56
2023-04-25T04:58:19.132Z,99651.31
2023-04-25T05:01:22.587Z,99637.38
2023-04-25T05:04:25.444Z,99646.22
2023-04-25T05:07:28.374Z,99648.66
2023-04-25T05:10:32.571Z,99655.97
2023-04-25T05:13:35.289Z,99657.81
2023-04-25T05:16:37.996Z,99661.50
2023-04-25T05:19:41.586Z,99659.63
2023-04-25T05:22:44.225Z,99660.44
2023-04-25T05:25:48.309Z,99659.09
2023-04-25T05:28:51.995Z,99671.50
2023-04-25T05:31:55.709Z,99665.84
2023-04-25T05:34:58.443Z,99669.03
2023-04-25T05:38:01.168Z,99666.66
2023-04-25T05:41:05.333Z,99671.97
2023-04-25T05:44:08.000Z,99670.25
2023-04-25T05:47:10.670Z,99673.41
2023-04-25T05:50:13.447Z,99670.28
2023-04-25T05:53:16.239Z,99671.84
2023-04-25T05:56:20.277Z,99676.94
2023-04-25T05:59:22.922Z,99679.22
2023-04-25T06:02:26.238Z,99685.53
2023-04-25T06:05:30.103Z,99682.69
2023-04-25T06:08:33.746Z,99686.34
2023-04-25T06:11:37.808Z,99691.94
2023-04-25T06:14:40.780Z,99697.81
2023-04-25T06:17:43.475Z,99686.72
2023-04-25T06:20:46.185Z,99690.13
2023-04-25T06:23:49.243Z,99686.97
2023-04-25T06:26:54.198Z,99702.69
2023-04-25T06:29:56.885Z,99698.66
2023-04-25T06:32:59.920Z,99693.72
2023-04-25T06:36:02.667Z,99687.56
2023-04-25T06:39:05.990Z,99695.59
2023-04-25T06:42:09.982Z,99698.34
2023-04-25T06:45:12.802Z,99694.34
2023-04-25T06:48:15.496Z,99691.47
2023-04-25T06:51:18.928Z,99699.50
2023-04-25T06:54:21.656Z,99694.09
2023-04-25T06:57:25.755Z,99703.38
2023-04-25T07:00:29.555Z,99680.59
2023-04-25T07:03:32.808Z,99676.56
2023-04-25T07:06:39.060Z,99684.88
2023-04-25T07:09:41.830Z,99680.84
2023-04-25T07:12:46.035Z,99682.94
2023-04-25T07:15:51.917Z,99687.25
2023-04-25T07:18:54.649Z,99689.25
2023-04-25T07:21:57.339Z,99697.47
2023-04-25T07:25:00.023Z,99691.88
2023-04-25T07:28:04.217Z,99693.03
2023-04-25T07:31:07.332Z,99704.00
2023-04-25T07:34:10.059Z,99700.19
2023-04-25T07:37:12.738Z,99706.03
2023-04-25T07:40:16.686Z,99695.19
2023-04-25T07:43:21.671Z,99692.66
2023-04-25T07:46:24.447Z,99688.94
2023-04-25T07:49:27.289Z,99689.41
2023-04-25T07:52:29.999Z,99696.69
2023-04-25T07:55:32.664Z,99704.31
2023-04-25T07:58:36.691Z,99707.56
2023-04-25T08:01:41.106Z,99699.88
2023-04-25T08:04:43.866Z,99707.50
2023-04-25T08:07:46.640Z,99706.81
2023-04-25T08:10:49.602Z,99702.75
2023-04-25T08:13:54.402Z,99701.75
2023-04-25T08:17:00.241Z,99699.16
2023-04-25T08:20:07.900Z,99701.22
2023-04-25T08:23:13.634Z,99705.72
2023-04-25T08:26:16.503Z,99705.97
2023-04-25T08:29:20.786Z,99701.59
2023-04-25T08:32:23.569Z,99709.53
2023-04-25T08:35:26.619Z,99723.16
2023-04-25T08:38:29.321Z,99721.72
2023-04-25T08:41:32.773Z,99727.25
2023-04-25T08:44:37.057Z,99728.75
2023-04-25T08:47:40.967Z,99733.97
2023-04-25T08:50:51.097Z,99738.25
2023-04-25T08:53:57.812Z,99726.22
2023-04-25T08:57:05.475Z,99748.59
2023-04-25T09:00:11.675Z,99755.38
2023-04-25T09:03:15.124Z,99762.53
2023-04-25T09:06:19.925Z,99755.63
2023-04-25T09:09:22.720Z,99771.03
2023-04-25T09:12:25.476Z,99769.59
2023-04-25T09:15:29.774Z,99763.56
2023-04-25T09:18:34.120Z,99760.50
2023-04-25T09:21:37.287Z,99771.56
2023-04-25T09:24:43.560Z,99764.53
2023-04-25T09:27:53.581Z,99773.03
2023-04-25T09:30:59.352Z,99769.88
2023-04-25T09:34:03.247Z,99772.16
2023-04-25T09:37:06.309Z,99780.97
2023-04-25T09:40:11.190Z,99779.94
2023-04-25T09:43:21.560Z,99778.19
2023-04-25T09:46:26.336Z,99786.75
2023-04-25T09:49:29.520Z,99780.91
2023-04-25T09:52:32.385Z,99779.16
2023-04-25T09:55:36.913Z,99784.41
2023-04-25T09:58:41.294Z,99799.19
2023-04-25T10:01:45.615Z,99778.72
2023-04-25T10:04:53.757Z,99784.53
2023-04-25T10:07:57.480Z,99791.13
2023-04-25T10:11:02.241Z,99788.63
2023-04-25T10:14:05.043Z,99783.03
2023-04-25T10:17:12.772Z,99780.84
2023-04-25T10:20:17.661Z,99775.53
2023-04-25T10:23:20.587Z,99791.88
2023-04-25T10:26:23.300Z,99797.16
2023-04-25T10:29:27.175Z,99781.31
2023-04-25T10:32:32.698Z,99805.81
2023-04-25T10:35:38.157Z,99799.03
2023-04-25T10:38:41.634Z,99791.00
2023-04-25T10:41:49.274Z,99810.63
2023-04-25T10:45:04.380Z,99802.06
2023-04-25T10:48:27.379Z,99797.47
2023-04-25T10:51:43.415Z,99818.00
2023-04-25T10:54:57.452Z,99822.78
2023-04-25T10:58:00.405Z,99826.09
2023-04-25T11:01:03.838Z,99828.75
2023-04-25T11:04:08.578Z,99839.47
2023-04-25T11:07:21.796Z,99844.53
2023-04-25T11:10:27.655Z,99855.66
2023-04-25T11:13:31.819Z,99847.00
2023-04-25T11:16:34.579Z,99857.59
2023-04-25T11:19:38.658Z,99845.97
2023-04-25T11:22:42.871Z,99832.69
2023-04-25T11:25:46.432Z,99840.44
2023-04-25T11:28:51.392Z,99846.69
2023-04-25T11:31:54.518Z,99843.09
2023-04-25T11:34:59.723Z,99836.50
2023-04-25T11:38:03.333Z,99839.63
2023-04-25T11:41:06.355Z,99831.94
2023-04-25T11:44:09.049Z,99834.31
2023-04-25T11:47:11.750Z,99839.56
2023-04-25T11:50:16.369Z,99837.25
2023-04-25T11:53:19.942Z,99855.16
2023-04-25T11:56:22.744Z,99848.97
2023-04-25T11:59:28.805Z,99854.75
2023-04-25T12:02:32.685Z,99860.63
2023-04-25T12:05:38.933Z,99857.16
2023-04-25T12:09:01.133Z,99846.03
2023-04-25T12:12:04.978Z,99858.78
2023-04-25T12:15:12.549Z,99855.41
2023-04-25T12:18:15.399Z,99870.47
2023-04-25T12:21:19.566Z,99872.16
2023-04-25T12:24:26.458Z,99887.38
2023-04-25T12:27:29.656Z,99891.78
2023-04-25T12:30:32.973Z,99897.16
2023-04-25T12:33:36.984Z,99892.69
2023-04-25T12:36:41.409Z,99904.06
2023-04-25T12:39:44.067Z,99892.44
2023-04-25T12:42:47.024Z,99892.78
2023-04-25T12:45:51.177Z,99894.34
2023-04-25T12:48:53.967Z,99891.13
2023-04-25T12:51:58.012Z,99894.03
2023-04-25T12:55:00.871Z,99893.25
2023-04-25T12:58:04.023Z,99885.41
2023-04-25T13:01:07.003Z,99879.66
2023-04-25T13:04:09.793Z,99899.94
2023-04-25T13:07:13.906Z,99890.31
2023-04-25T13:10:16.650Z,99897.56
2023-04-25T13:13:19.403Z,99902.13
2023-04-25T13:16:22.667Z,99917.00
2023-04-25T13:19:26.656Z,99912.28
2023-04-25T13:22:30.794Z,99920.09
2023-04-25T13:25:33.555Z,99923.69
2023-04-25T13:28:36.272Z,99916.16
2023-04-25T13:31:38.955Z,99911.25
2023-04-25T13:34:41.840Z,99913.91
2023-04-25T13:37:46.292Z,99911.59
2023-04-25T13:40:49.139Z,99915.41
2023-04-25T13:43:52.202Z,99918.47
2023-04-25T13:46:55.154Z,99902.22
2023-04-25T13:49:57.971Z,99916.84
2023-04-25T13:53:01.991Z,99912.06
2023-04-25T13:56:05.696Z,99917.44
2023-04-25T13:59:08.484Z,99913.91
2023-04-25T14:02:11.450Z,99909.53
2023-04-25T14:05:14.470Z,99898.31
2023-04-25T14:08:18.550Z,99896.41
2023-04-25T14:11:21.394Z,99904.00
2023-04-25T14:14:24.775Z,99913.63
2023-04-25T14:17:27.511Z,99907.16
2023-04-25T14:20:30.801Z,99916.66
2023-04-25T14:23:34.930Z,99921.78
2023-04-25T14:26:37.698Z,99920.97
2023-04-25T14:29:40.398Z,99916.22
2023-04-25T14:32:43.303Z,99936.34
2023-04-25T14:35:46.554Z,99935.47
2023-04-25T14:38:50.631Z,99938.50
2023-04-25T14:41:53.270Z,99943.59
2023-04-25T14:44:56.095Z,99943.44
2023-04-25T14:47:58.916Z,99943.19
2023-04-25T14:51:02.319Z,99941.25
2023-04-25T14:54:06.504Z,99938.88
2023-04-25T14:57:09.417Z,99936.97
2023-04-25T15:00:16.641Z,99943.38
2023-04-25T15:03:19.907Z,99952.63
2023-04-25T15:06:22.798Z,99954.16
2023-04-25T15:09:26.925Z,99955.38
2023-04-25T15:12:29.625Z,99946.53
2023-04-25T15:15:32.479Z,99946.63
2023-04-25T15:18:35.212Z,99954.63
2023-04-25T15:21:38.894Z,99947.38
2023-04-25T15:24:43.132Z,99952.97
2023-04-25T15:27:46.264Z,99952.97
2023-04-25T15:30:49.093Z,99967.56
2023-04-25T15:33:52.009Z,99960.38
2023-04-25T15:36:54.810Z,99964.19
2023-04-25T15:40:08.015Z,99968.66
2023-04-25T15:43:15.594Z,99977.22
2023-04-25T15:46:18.523Z,99971.31
2023-04-25T15:49:21.796Z,99959.81
2023-04-25T15:52:24.543Z,99968.34
2023-04-25T15:55:29.238Z,99963.44
2023-04-25T15:58:31.872Z,99956.66
2023-04-25T16:01:36.766Z,99958.59
2023-04-25T16:04:39.593Z,99966.19
2023-04-25T16:07:43.748Z,99958.41
2023-04-25T16:10:48.380Z,99962.09
2023-04-25T16:13:51.376Z,99962.66
2023-04-25T16:16:54.570Z,99977.75
2023-04-25T16:19:59.230Z,99970.53
2023-04-25T16:23:02.345Z,99972.00
2023-04-25T16:26:07.151Z,99986.34
2023-04-25T16:29:10.030Z,99984.50
2023-04-25T16:32:13.347Z,100002.25
2023-04-25T16:35:16.172Z,100004.16
2023-04-25T16:38:19.034Z,100005.44
2023-04-25T16:41:23.322Z,100004.94
2023-04-25T16:44:27.126Z,100006.69
2023-04-25T16:47:30.066Z,100013.88
2023-04-25T16:50:33.073Z,100002.72
2023-04-25T16:53:36.037Z,100008.22
2023-04-25T16:56:40.092Z,100006.69
2023-04-25T16:59:42.908Z,100007.56
2023-04-25T17:02:45.668Z,100010.94
2023-04-25T17:05:52.108Z,100012.25
2023-04-25T17:08:55.262Z,100014.78
2023-04-25T17:11:59.483Z,100019.94
2023-04-25T17:15:02.193Z,100017.63
2023-04-25T17:18:05.273Z,100025.59
2023-04-25T17:21:08.846Z,100028.50
2023-04-25T17:24:12.245Z,100028.72
2023-04-25T17:27:16.358Z,100030.81
2023-04-25T17:30:19.202Z,100046.78
2023-04-25T17:33:26.864Z,100049.38
2023-04-25T17:36:29.760Z,100055.28
2023-04-25T17:39:32.474Z,100054.78
2023-04-25T17:42:36.615Z,100037.59
2023-04-25T17:45:39.297Z,100065.47
2023-04-25T17:48:42.079Z,100061.34
2023-04-25T17:51:44.887Z,100066.59
2023-04-25T17:54:49.211Z,100075.88
2023-04-25T17:57:53.947Z,100079.44
2023-04-25T18:00:57.009Z,100079.28
2023-04-25T18:03:59.765Z,100075.03
2023-04-25T18:07:02.490Z,100044.69
2023-04-25T18:10:06.819Z,100078.44
2023-04-25T18:13:10.856Z,100065.38
2023-04-25T18:16:13.647Z,100077.13
2023-04-25T18:19:21.246Z,100082.09
2023-04-25T18:22:24.019Z,100087.13
2023-04-25T18:25:26.888Z,100082.19
2023-04-25T18:28:31.262Z,100100.16
2023-04-25T18:31:35.617Z,100105.63
2023-04-25T18:34:41.439Z,100109.34
2023-04-25T18:37:44.362Z,100116.66
2023-04-25T18:40:56.667Z,100122.16
2023-04-25T18:44:06.750Z,100125.81
2023-04-25T18:47:10.235Z,100139.63
2023-04-25T18:50:13.138Z,100148.84
2023-04-25T18:53:15.867Z,100145.94
2023-04-25T18:56:21.027Z,100155.56
2023-04-25T18:59:25.063Z,100161.63
2023-04-25T19:02:27.954Z,100162.13
2023-04-25T19:05:32.227Z,100167.34
2023-04-25T19:08:34.947Z,100177.00
2023-04-25T19:11:37.647Z,100177.31
2023-04-25T19:14:41.821Z,100188.97
2023-04-25T19:17:44.638Z,100184.09
2023-04-25T19:20:47.426Z,100188.22
2023-04-25T19:23:50.375Z,100182.81
2023-04-25T19:26:53.185Z,100186.16
2023-04-25T19:30:07.725Z,100191.31
2023-04-25T19:33:10.527Z,100199.81
2023-04-25T19:36:13.257Z,100207.38
2023-04-25T19:39:15.956Z,100206.00
2023-04-25T19:42:19.238Z,100210.91
2023-04-25T19:45:23.442Z,100200.47
2023-04-25T19:48:26.118Z,100211.78
2023-04-25T19:51:29.545Z,100217.28
2023-04-25T19:54:32.454Z,100222.06
2023-04-25T19:57:37.871Z,100238.53
2023-04-25T20:00:42.164Z,100203.50
2023-04-25T20:03:45.392Z,100236.03
2023-04-25T20:06:48.122Z,100245.22
2023-04-25T20:09:51.111Z,100252.97
2023-04-25T20:12:54.547Z,100262.84
2023-04-25T20:16:01.269Z,100261.09
2023-04-25T20:19:05.585Z,100268.25
2023-04-25T20:22:08.252Z,100266.34
2023-04-25T20:25:13.553Z,100261.78
2023-04-25T20:28:16.534Z,100264.41
2023-04-25T20:31:21.267Z,100262.69
2023-04-25T20:34:25.340Z,100262.69
2023-04-25T20:37:28.528Z,100258.22
2023-04-25T20:40:31.619Z,100258.50
2023-04-25T20:43:34.600Z,100270.75
2023-04-25T20:46:38.826Z,100264.91
2023-04-25T20:49:41.673Z,100266.41
2023-04-25T20:52:44.556Z,100268.59
2023-04-25T20:55:47.339Z,100278.75
2023-04-25T20:58:50.324Z,100278.13
2023-04-25T21:01:55.726Z,100281.88
2023-04-25T21:04:59.258Z,100283.81
2023-04-25T21:08:02.764Z,100292.09
2023-04-25T21:11:05.486Z,100287.06
2023-04-25T21:14:08.901Z,100286.50
2023-04-25T21:17:13.053Z,100295.91
2023-04-25T21:20:17.861Z,100289.22
2023-04-25T21:23:20.555Z,100311.03
2023-04-25T21:26:23.248Z,100314.00
2023-04-25T21:29:26.070Z,100317.03
2023-04-25T21:32:30.154Z,100322.03
2023-04-25T21:35:32.916Z,100325.81
2023-04-25T21:38:35.771Z,100312.59
2023-04-25T21:41:38.622Z,100321.66
2023-04-25T21:44:41.307Z,100327.41
2023-04-25T21:47:46.568Z,100331.22
2023-04-25T21:50:49.330Z,100335.88
2023-04-25T21:53:52.166Z,100333.34
2023-04-25T21:56:54.943Z,100339.72
2023-04-25T21:59:57.613Z,100341.84
2023-04-25T22:03:02.297Z,100350.16
2023-04-25T22:06:05.090Z,100354.69
2023-04-25T22:09:09.289Z,100350.50
2023-04-25T22:12:14.693Z,100347.00
2023-04-25T22:15:19.342Z,100348.03
2023-04-25T22:18:23.422Z,100347.31
2023-04-25T22:21:26.232Z,100352.06
2023-04-25T22:24:30.032Z,100358.50
2023-04-25T22:27:32.650Z,100364.84
2023-04-25T22:30:37.185Z,100367.75
2023-04-25T22:33:41.389Z,100377.75
2023-04-25T22:36:44.184Z,100379.66
2023-04-25T22:39:46.891Z,100383.41
2023-04-25T22:42:49.608Z,100376.50
2023-04-25T22:45:52.608Z,100381.94
2023-04-25T22:48:56.667Z,100388.28
2023-04-25T22:51:59.415Z,100388.47
2023-04-25T22:55:02.828Z,100393.97
2023-04-25T22:58:07.572Z,100389.63
2023-04-25T23:01:11.329Z,100398.66
2023-04-25T23:04:16.720Z,100410.47
2023-04-25T23:07:19.878Z,100407.88
2023-04-25T23:10:22.534Z,100409.75
2023-04-25T23:13:25.814Z,100414.34
2023-04-25T23:16:28.541Z,100426.00
2023-04-25T23:19:32.612Z,100427.09
2023-04-25T23:22:36.118Z,100426.38
2023-04-25T23:25:40.100Z,100433.59
2023-04-25T23:28:42.964Z,100420.16
2023-04-25T23:31:45.698Z,100423.91
2023-04-25T23:34:50.068Z,100425.78
2023-04-25T23:37:52.874Z,100434.88
2023-04-25T23:40:55.510Z,100431.41
2023-04-25T23:43:58.320Z,100431.56
2023-04-25T23:47:01.152Z,100440.53
2023-04-25T23:50:06.151Z,100438.03
2023-04-25T23:53:09.165Z,100436.31
2023-04-25T23:56:11.954Z,100439.09
2023-04-25T23:59:14.622Z,100444.56
